Time;durP1;ratioP1;P1;durP2;ratioP2;P2;SDS_P1;SDS_P2;PMS_P1;PMS_P2;Temp;Humidity;BMP_temperature;BMP_pressure;BME280_temperature;BME280_humidity;BME280_pressure;Samples;Min_cycle;Max_cycle;Signal;HPM_P1;HPM_P2
2023/05/21 07:45:52;;;;;;;7.90;4.38;;;;;;;31.57;27.58;101733.59;2102802;28;20453;-69
2023/05/21 07:46:55;;;;;;;7.35;4.53;;;;;;;30.48;28.80;101727.16;2095058;28;20033;-70
2023/05/21 07:47:58;;;;;;;6.90;4.20;;;;;;;29.84;29.79;101737.72;2079057;28;20029;-69
2023/05/21 07:49:04;;;;;;;7.43;4.57;;;;;;;29.27;31.07;101729.59;2087803;28;20030;-70
2023/05/21 07:50:06;;;;;;;9.27;4.70;;;;;;;28.68;31.81;101734.75;2086699;28;20105;-71
2023/05/21 07:51:11;;;;;;;9.40;4.50;;;;;;;28.17;33.49;101735.16;2076992;28;20042;-70
2023/05/21 07:52:15;;;;;;;9.98;5.00;;;;;;;27.94;33.30;101733.22;2071038;28;20038;-72
2023/05/21 07:53:18;;;;;;;8.27;4.90;;;;;;;27.57;33.68;101734.88;2079126;28;20062;-67
2023/05/21 07:54:21;;;;;;;7.00;4.32;;;;;;;27.24;34.07;101739.81;2071007;28;20054;-68
2023/05/21 07:55:25;;;;;;;8.70;4.25;;;;;;;26.94;34.43;101741.50;2073966;28;20030;-69
2023/05/21 07:56:31;;;;;;;9.40;4.90;;;;;;;26.57;34.95;101739.91;2095309;28;20029;-68
2023/05/21 07:57:36;;;;;;;8.60;4.95;;;;;;;26.49;35.55;101734.59;2092729;28;20029;-67
2023/05/21 07:58:44;;;;;;;6.72;4.50;;;;;;;26.63;36.07;101751.47;2088462;28;20042;-68
2023/05/21 07:59:48;;;;;;;12.23;5.25;;;;;;;26.63;35.37;101740.44;2069648;28;20157;-68
2023/05/21 08:00:50;;;;;;;9.07;4.43;;;;;;;26.48;35.46;101747.59;2069846;28;20110;-68
2023/05/21 08:01:55;;;;;;;8.07;4.55;;;;;;;26.42;35.69;101742.66;2075020;28;20120;-68
2023/05/21 08:03:01;;;;;;;9.90;4.57;;;;;;;26.34;36.02;101742.50;2060675;28;20078;-67
2023/05/21 08:04:05;;;;;;;13.18;4.78;;;;;;;26.03;35.86;101748.03;2088532;28;20026;-67
2023/05/21 08:05:12;;;;;;;10.23;5.00;;;;;;;25.80;36.96;101743.09;2082491;28;20038;-70
2023/05/21 08:06:14;;;;;;;7.05;4.32;;;;;;;25.71;37.46;101736.94;2062595;28;20039;-68
2023/05/21 08:07:26;;;;;;;7.18;4.65;;;;;;;25.76;37.37;101739.44;2070337;28;20134;-70
2023/05/21 08:08:28;;;;;;;7.10;4.72;;;;;;;25.89;37.24;101742.97;2071915;28;20097;-70
2023/05/21 08:09:34;;;;;;;5.40;4.30;;;;;;;25.85;37.67;101745.63;2071190;28;20038;-70
2023/05/21 08:10:36;;;;;;;9.55;4.90;;;;;;;25.91;37.34;101743.38;2072590;28;20035;-70
2023/05/21 08:11:42;;;;;;;7.57;4.30;;;;;;;26.04;36.98;101741.34;2062301;28;20968;-69
2023/05/21 08:12:45;;;;;;;6.57;4.47;;;;;;;26.00;36.22;101744.00;2079344;28;20037;-70
2023/05/21 08:13:49;;;;;;;8.07;4.25;;;;;;;26.02;35.56;101740.91;2070293;28;20137;-70
2023/05/21 08:14:51;;;;;;;5.70;4.05;;;;;;;26.01;36.04;101745.63;2071155;28;20031;-70
2023/05/21 08:15:54;;;;;;;8.23;4.07;;;;;;;25.81;36.27;101743.91;2078369;28;20030;-69
2023/05/21 08:16:58;;;;;;;5.75;4.30;;;;;;;25.85;36.89;101745.63;2093155;28;20021;-69
2023/05/21 08:18:00;;;;;;;8.43;4.10;;;;;;;25.86;37.08;101754.69;2085876;28;20041;-69
2023/05/21 08:19:02;;;;;;;10.88;3.83;;;;;;;25.91;37.12;101746.13;2078809;28;20073;-68
2023/05/21 08:20:14;;;;;;;5.72;3.72;;;;;;;25.85;35.71;101744.78;2086451;28;20030;-69
2023/05/21 08:21:19;;;;;;;6.10;3.50;;;;;;;25.81;35.95;101749.41;2088184;28;21073;-70
2023/05/21 08:22:25;;;;;;;11.30;4.03;;;;;;;25.54;36.05;101748.28;2070176;28;20034;-71
2023/05/21 08:23:30;;;;;;;5.88;3.67;;;;;;;25.45;36.60;101740.19;2070670;28;20972;-72
2023/05/21 08:24:37;;;;;;;8.05;3.72;;;;;;;25.42;36.60;101735.38;2084185;28;20037;-71
2023/05/21 08:25:39;;;;;;;7.40;3.42;;;;;;;25.26;37.04;101737.28;2086872;28;20141;-71
2023/05/21 08:26:49;;;;;;;5.05;3.35;;;;;;;25.32;37.56;101735.88;2060656;28;20670;-76
2023/05/21 08:27:57;;;;;;;6.35;3.90;;;;;;;25.34;37.26;101739.06;2079048;28;20077;-72
2023/05/21 08:28:59;;;;;;;9.20;3.70;;;;;;;25.30;36.29;101749.19;2071689;28;20042;-76
2023/05/21 08:30:04;;;;;;;6.15;3.25;;;;;;;25.22;36.10;101733.63;2070082;28;20153;-71
2023/05/21 08:31:08;;;;;;;5.43;3.83;;;;;;;25.01;37.43;101740.09;2070715;28;20042;-72
2023/05/21 08:32:13;;;;;;;5.28;3.60;;;;;;;24.97;37.23;101739.19;2063953;28;20874;-70
2023/05/21 08:33:15;;;;;;;6.15;3.63;;;;;;;24.92;37.66;101744.91;2071116;28;20042;-71
2023/05/21 08:34:19;;;;;;;5.43;3.40;;;;;;;24.70;37.83;101735.22;2079104;28;20042;-71
2023/05/21 08:35:29;;;;;;;7.70;3.47;;;;;;;24.54;37.68;101739.81;2070464;28;20031;-72
2023/05/21 08:36:45;;;;;;;4.85;3.58;;;;;;;24.48;38.05;101744.75;2066683;28;20058;-69
2023/05/21 08:38:10;;;;;;;4.25;3.17;;;;;;;24.31;37.39;101732.03;2078878;28;20056;-71
2023/05/21 08:39:19;;;;;;;7.32;3.45;;;;;;;24.13;38.37;101730.63;2071936;28;20025;-71
2023/05/21 08:40:22;;;;;;;4.93;3.35;;;;;;;24.22;38.61;101736.81;2071746;28;20035;-70
2023/05/21 08:41:23;;;;;;;6.68;3.60;;;;;;;24.24;38.32;101740.84;2062622;28;21210;-70
2023/05/21 08:42:57;;;;;;;7.35;4.90;;;;;;;24.34;38.67;101734.09;2070879;28;20030;-71
2023/05/21 08:44:19;;;;;;;7.72;3.42;;;;;;;24.25;38.44;101728.69;2092412;28;20156;-73
2023/05/21 08:45:22;;;;;;;6.05;3.47;;;;;;;24.21;39.06;101749.75;2079305;28;20045;-70
2023/05/21 08:46:27;;;;;;;5.88;3.60;;;;;;;23.90;39.11;101738.50;2078641;28;20049;-71
2023/05/21 08:47:34;;;;;;;6.78;3.95;;;;;;;23.75;39.78;101738.00;2078288;28;20042;-71
2023/05/21 08:48:38;;;;;;;7.18;3.58;;;;;;;23.72;40.52;101748.88;2070986;28;20761;-71
2023/05/21 08:49:46;;;;;;;4.05;3.35;;;;;;;23.70;40.94;101740.16;2071152;28;20023;-70
2023/05/21 08:50:54;;;;;;;;;;;;;;;23.65;39.89;101743.09;2071704;28;20019;-70
2023/05/21 08:52:06;;;;;;;12.50;3.55;;;;;;;23.62;40.18;101733.59;2065174;28;20108;-70
2023/05/21 08:53:09;;;;;;;6.85;3.90;;;;;;;23.59;41.86;101734.28;2079083;28;20196;-71
2023/05/21 08:54:12;;;;;;;6.32;4.10;;;;;;;23.57;41.76;101739.28;2070305;28;20059;-71
2023/05/21 08:55:17;;;;;;;6.75;4.25;;;;;;;23.59;42.33;101745.25;2072337;28;20871;-70
2023/05/21 08:56:23;;;;;;;9.35;4.43;;;;;;;23.54;43.54;101739.97;2084425;28;20123;-72
2023/05/21 08:57:31;;;;;;;7.65;3.88;;;;;;;23.49;43.94;101742.94;2064502;28;20037;-71
2023/05/21 08:58:33;;;;;;;11.85;4.03;;;;;;;23.42;43.66;101742.66;2080348;28;20077;-72
2023/05/21 08:59:43;;;;;;;6.72;3.95;;;;;;;23.24;42.84;101742.03;2065534;28;20869;-70
2023/05/21 09:00:56;;;;;;;6.30;4.05;;;;;;;23.18;44.75;101735.94;2091166;28;20969;-71
2023/05/21 09:02:00;;;;;;;8.50;4.00;;;;;;;23.16;45.32;101732.72;2079901;28;20803;-72
2023/05/21 09:03:11;;;;;;;5.05;3.85;;;;;;;23.16;45.27;101740.94;2074685;28;20864;-72
2023/05/21 09:04:16;;;;;;;9.52;4.97;;;;;;;23.09;45.58;101740.69;2065240;28;20141;-72
2023/05/21 09:06:32;;;;;;;8.85;4.88;;;;;;;23.10;45.77;101745.03;2128100;27;21132;-72
2023/05/21 09:08:26;;;;;;;8.27;4.43;;;;;;;23.11;45.53;101743.91;2118423;27;20027;-71
2023/05/21 09:09:48;;;;;;;10.52;4.15;;;;;;;23.19;45.73;101747.72;2102331;28;20890;-72
2023/05/21 09:10:53;;;;;;;7.28;4.57;;;;;;;23.22;45.44;101752.53;2099575;28;21367;-70
2023/05/21 09:12:00;;;;;;;4.97;3.92;;;;;;;23.17;45.64;101745.31;2097653;27;20045;-71
2023/05/21 09:13:02;;;;;;;6.97;4.20;;;;;;;23.06;45.56;101733.13;2113664;27;20853;-70
2023/05/21 09:14:06;;;;;;;7.07;4.20;;;;;;;23.08;45.89;101741.84;2111386;27;20096;-71
2023/05/21 09:15:24;;;;;;;7.25;4.10;;;;;;;23.07;45.10;101740.22;2105579;28;20033;-71
2023/05/21 09:16:28;;;;;;;6.90;3.70;;;;;;;23.06;45.30;101744.91;2097111;28;20946;-69
2023/05/21 09:17:36;;;;;;;11.50;4.43;;;;;;;23.05;45.10;101745.25;2104562;27;20127;-69
2023/05/21 09:19:01;;;;;;;11.05;4.60;;;;;;;22.92;45.19;101741.59;2115430;27;20032;-70
2023/05/21 09:20:11;;;;;;;5.82;4.25;;;;;;;22.84;45.10;101739.72;2121489;27;20747;-70
2023/05/21 09:21:22;;;;;;;8.48;5.20;;;;;;;22.79;45.25;101745.38;2121217;27;20774;-72
2023/05/21 09:22:24;;;;;;;9.85;4.15;;;;;;;22.79;45.30;101737.16;2121381;27;20130;-69
2023/05/21 09:23:29;;;;;;;5.18;4.13;;;;;;;22.75;45.68;101738.97;2102345;28;20035;-69
2023/05/21 09:24:31;;;;;;;6.78;4.28;;;;;;;22.72;45.26;101734.16;2104982;27;20035;-69
2023/05/21 09:25:37;;;;;;;10.70;4.50;;;;;;;22.48;44.99;101738.31;2118156;27;20031;-68
2023/05/21 09:26:43;;;;;;;9.25;4.05;;;;;;;22.28;45.72;101739.84;2121906;27;20040;-68
2023/05/21 09:27:48;;;;;;;5.53;3.83;;;;;;;22.27;46.29;101735.53;2129416;27;20016;-68
2023/05/21 09:28:56;;;;;;;7.93;4.10;;;;;;;22.37;45.98;101740.63;2128407;27;20040;-68
2023/05/21 09:29:58;;;;;;;6.25;4.05;;;;;;;22.43;45.86;101739.31;2096814;28;20140;-68
2023/05/21 09:31:02;;;;;;;5.93;4.00;;;;;;;22.46;45.64;101731.56;2104529;27;20060;-68
2023/05/21 09:32:11;;;;;;;6.45;4.22;;;;;;;22.51;45.74;101734.09;2111993;27;20048;-68
2023/05/21 09:33:28;;;;;;;10.68;4.25;;;;;;;22.57;45.83;101736.34;2123483;27;20801;-68
2023/05/21 09:34:31;;;;;;;8.15;4.07;;;;;;;22.49;46.21;101741.88;2119851;27;20028;-69
2023/05/21 09:35:34;;;;;;;7.60;4.45;;;;;;;22.29;45.20;101733.25;2111583;27;20037;-69
2023/05/21 09:36:38;;;;;;;6.45;4.03;;;;;;;22.22;45.71;101741.16;2111383;27;20162;-69
2023/05/21 09:37:44;;;;;;;5.13;4.03;;;;;;;22.15;44.98;101738.13;2110845;27;20115;-69
2023/05/21 09:38:50;;;;;;;6.13;3.97;;;;;;;22.12;45.98;101745.03;2127792;27;20921;-69
2023/05/21 09:39:53;;;;;;;7.57;4.15;;;;;;;22.06;45.55;101746.34;2110983;28;20111;-69
2023/05/21 09:40:55;;;;;;;5.07;3.90;;;;;;;21.99;45.73;101738.66;2094553;27;20025;-69
2023/05/21 09:42:01;;;;;;;7.30;3.50;;;;;;;21.92;45.97;101741.09;2104111;27;20041;-69
2023/05/21 09:43:05;;;;;;;10.88;4.32;;;;;;;21.70;45.87;101752.25;2094454;28;20043;-69
2023/05/21 09:44:10;;;;;;;5.50;3.85;;;;;;;21.63;46.45;101749.22;2104702;27;20021;-69
2023/05/21 09:45:13;;;;;;;6.55;4.03;;;;;;;21.59;46.19;101748.25;2112021;27;20021;-69
2023/05/21 09:46:24;;;;;;;12.70;4.47;;;;;;;21.39;46.43;101745.06;2104362;27;20240;-69
2023/05/21 09:47:29;;;;;;;6.95;4.18;;;;;;;21.40;46.96;101741.19;2114633;27;20790;-69
2023/05/21 09:48:39;;;;;;;9.35;4.70;;;;;;;21.44;46.11;101747.63;2104275;28;20032;-69
2023/05/21 09:49:43;;;;;;;7.43;4.95;;;;;;;21.37;45.74;101752.75;2100444;27;20033;-69
2023/05/21 09:50:46;;;;;;;8.48;4.90;;;;;;;21.33;45.89;101751.78;2121547;27;20107;-69
2023/05/21 09:51:48;;;;;;;5.10;3.97;;;;;;;21.26;46.24;101746.00;2121471;27;20217;-69
2023/05/21 09:52:54;;;;;;;7.32;4.35;;;;;;;21.26;46.11;101746.00;2122043;27;20031;-69
2023/05/21 09:53:58;;;;;;;4.13;3.53;;;;;;;21.30;46.55;101749.69;2130216;27;20023;-68
2023/05/21 09:55:00;;;;;;;6.07;3.72;;;;;;;21.25;46.39;101752.59;2113688;27;20183;-69
2023/05/21 09:56:02;;;;;;;4.82;3.88;;;;;;;21.16;46.86;101749.06;2113783;27;20028;-69
2023/05/21 09:57:06;;;;;;;11.00;4.20;;;;;;;21.25;46.44;101747.13;2122314;27;20028;-68
2023/05/21 09:58:10;;;;;;;5.10;3.90;;;;;;;21.24;46.64;101759.19;2113711;27;20122;-70
2023/05/21 09:59:11;;;;;;;8.00;3.97;;;;;;;21.29;46.58;101751.63;2122055;27;20035;-70
2023/05/21 10:00:26;;;;;;;5.10;4.20;;;;;;;21.27;46.93;101751.13;2130509;27;20031;-70
2023/05/21 10:01:30;;;;;;;7.32;4.13;;;;;;;21.24;46.70;101751.78;2115312;27;20937;-71
2023/05/21 10:02:32;;;;;;;5.72;3.75;;;;;;;21.29;46.85;101759.81;2113977;27;20029;-70
2023/05/21 10:03:41;;;;;;;6.63;4.50;;;;;;;21.12;45.35;101756.28;2104749;28;20044;-70
2023/05/21 10:04:44;;;;;;;8.93;4.00;;;;;;;20.97;45.85;101757.56;2115578;27;20028;-70
2023/05/21 10:05:53;;;;;;;7.63;3.95;;;;;;;20.91;45.85;101747.91;2112867;27;20052;-70
2023/05/21 10:06:55;;;;;;;7.03;4.05;;;;;;;20.83;46.52;101749.50;2115462;27;20016;-71
2023/05/21 10:08:02;;;;;;;11.18;3.70;;;;;;;20.90;46.84;101749.84;2107895;28;20013;-70
2023/05/21 10:09:13;;;;;;;6.28;3.83;;;;;;;20.96;47.43;101742.25;2106792;27;20020;-70
2023/05/21 10:10:16;;;;;;;17.40;4.40;;;;;;;21.06;47.30;101753.72;2104913;28;20113;-71
2023/05/21 10:11:21;;;;;;;5.80;3.95;;;;;;;21.04;47.00;101747.75;2088268;28;20022;-70
2023/05/21 10:12:26;;;;;;;11.25;4.40;;;;;;;21.11;47.23;101749.22;2101903;27;20041;-70
2023/05/21 10:13:28;;;;;;;7.75;4.13;;;;;;;21.18;47.93;101741.31;2105760;27;20021;-70
2023/05/21 10:14:32;;;;;;;9.27;5.38;;;;;;;21.21;46.34;101746.94;2122014;27;21557;-70
2023/05/21 10:15:52;;;;;;;7.32;4.25;;;;;;;21.23;46.02;101746.63;2122203;27;20032;-70
2023/05/21 10:16:58;;;;;;;8.38;4.05;;;;;;;21.22;46.62;101745.84;2115487;27;20159;-70
2023/05/21 10:18:00;;;;;;;9.65;4.57;;;;;;;21.26;46.70;101746.78;2098933;28;20834;-70
2023/05/21 10:19:01;;;;;;;8.82;5.10;;;;;;;21.29;46.63;101751.63;2107863;27;20090;-70
2023/05/21 10:20:06;;;;;;;10.52;4.82;;;;;;;21.37;46.63;101752.75;2116042;27;20024;-70
2023/05/21 10:21:08;;;;;;;7.28;5.35;;;;;;;21.46;46.20;101745.34;2116085;27;20033;-70
2023/05/21 10:22:12;;;;;;;6.68;4.63;;;;;;;21.55;45.89;101750.03;2107708;28;20036;-70
2023/05/21 10:23:13;;;;;;;7.82;4.32;;;;;;;21.59;45.39;101750.97;2116076;27;20930;-71
2023/05/21 10:24:17;;;;;;;8.70;4.53;;;;;;;21.52;45.06;101748.75;2115873;28;20125;-70
2023/05/21 10:25:20;;;;;;;7.15;4.60;;;;;;;21.54;44.72;101748.44;2095465;28;20030;-71
2023/05/21 10:26:23;;;;;;;6.43;4.22;;;;;;;21.51;44.39;101747.94;2091295;28;20155;-70
2023/05/21 10:27:26;;;;;;;6.55;4.28;;;;;;;21.43;44.80;101740.53;2107363;28;20036;-71
2023/05/21 10:28:29;;;;;;;6.97;4.18;;;;;;;21.30;44.54;101747.75;2107220;28;20025;-70
2023/05/21 10:29:32;;;;;;;6.50;4.57;;;;;;;21.18;45.08;101741.31;2090525;28;20041;-70
2023/05/21 10:30:35;;;;;;;5.57;4.57;;;;;;;21.20;44.80;101747.28;2099625;28;20132;-70
2023/05/21 10:31:37;;;;;;;6.30;4.30;;;;;;;21.24;44.68;101745.50;2098778;28;20041;-70
2023/05/21 10:32:40;;;;;;;9.05;4.50;;;;;;;21.27;45.04;101753.88;2091337;28;20787;-71
2023/05/21 10:33:42;;;;;;;5.40;4.10;;;;;;;21.24;44.80;101750.97;2107696;28;20102;-70
2023/05/21 10:34:45;;;;;;;7.72;4.40;;;;;;;21.28;45.01;101749.22;2107240;28;20168;-70
2023/05/21 10:35:48;;;;;;;4.88;3.90;;;;;;;21.38;45.13;101742.66;2107399;28;20040;-70
2023/05/21 10:36:51;;;;;;;4.57;3.80;;;;;;;21.42;45.29;101749.06;2108177;28;20035;-70
2023/05/21 10:37:57;;;;;;;9.88;3.75;;;;;;;21.28;45.37;101747.28;2107028;28;20036;-70
2023/05/21 10:38:59;;;;;;;4.78;3.78;;;;;;;21.26;45.41;101746.78;2099864;28;20155;-70
2023/05/21 10:40:01;;;;;;;5.72;3.70;;;;;;;21.22;45.43;101745.84;2107127;28;20110;-70
2023/05/21 10:41:05;;;;;;;7.35;3.40;;;;;;;21.22;45.43;101747.78;2099077;28;20028;-70
2023/05/21 10:42:23;;;;;;;7.43;3.53;;;;;;;21.22;45.26;101743.09;2083525;28;20026;-71
2023/05/21 10:43:41;;;;;;;5.55;3.28;;;;;;;21.17;45.14;101750.66;2095565;28;20025;-71
2023/05/21 10:45:00;;;;;;;5.22;3.40;;;;;;;21.14;45.24;101743.09;2084608;28;20029;-70
2023/05/21 10:46:19;;;;;;;4.93;2.85;;;;;;;21.10;45.47;101742.13;2089751;28;20042;-71
2023/05/21 10:47:45;;;;;;;5.07;3.00;;;;;;;21.13;45.59;101731.34;2101708;28;20025;-70
2023/05/21 10:49:04;;;;;;;10.98;3.33;;;;;;;21.21;45.18;101743.41;2094129;28;20045;-70
2023/05/21 10:50:40;;;;;;;6.75;3.08;;;;;;;21.24;44.40;101743.56;2095873;28;20907;-71
2023/05/21 10:51:46;;;;;;;8.70;3.05;;;;;;;21.18;44.36;101744.06;2094998;28;20176;-70
2023/05/21 10:53:16;;;;;;;5.22;3.00;;;;;;;21.25;45.18;101741.66;2107063;28;20028;-70
2023/05/21 10:54:23;;;;;;;6.40;3.25;;;;;;;21.31;44.40;101737.59;2102529;28;20218;-71
2023/05/21 10:55:37;;;;;;;6.40;2.97;;;;;;;21.32;44.79;101739.25;2091230;28;20068;-70
2023/05/21 10:56:47;;;;;;;8.05;3.00;;;;;;;21.20;44.85;101736.34;2100867;28;20067;-70
2023/05/21 10:58:10;;;;;;;6.70;3.00;;;;;;;21.18;45.59;101727.63;2099046;28;20037;-70
2023/05/21 10:59:23;;;;;;;6.35;3.33;;;;;;;21.15;44.63;101733.75;2101357;28;20033;-71
2023/05/21 11:00:27;;;;;;;5.60;2.90;;;;;;;21.17;44.91;101729.56;2091946;28;20144;-70
2023/05/21 11:01:32;;;;;;;5.82;2.80;;;;;;;21.23;44.82;101724.75;2074648;28;20042;-71
2023/05/21 11:02:34;;;;;;;3.22;2.90;;;;;;;21.28;44.09;101730.06;2075745;28;20885;-71
2023/05/21 11:03:39;;;;;;;4.10;2.95;;;;;;;21.23;44.17;101719.28;2090261;28;20025;-71
2023/05/21 11:04:56;;;;;;;6.15;2.92;;;;;;;21.27;44.16;101733.91;2090782;28;20041;-71
2023/05/21 11:06:05;;;;;;;6.80;2.70;;;;;;;21.17;42.61;101736.97;2094941;28;20880;-71
2023/05/21 11:07:10;;;;;;;8.38;3.17;;;;;;;20.94;43.62;101728.13;2106847;28;20912;-71
2023/05/21 11:08:22;;;;;;;7.68;2.95;;;;;;;20.77;44.20;101723.44;2115349;28;20020;-70
2023/05/21 11:09:24;;;;;;;5.30;2.85;;;;;;;20.70;44.98;101731.31;2098621;28;20134;-70
2023/05/21 11:10:43;;;;;;;5.07;3.08;;;;;;;20.47;46.60;101744.25;2090586;28;20036;-71
2023/05/21 11:11:50;;;;;;;7.63;3.40;;;;;;;20.18;48.06;101740.13;2101282;28;20921;-70
2023/05/21 11:13:06;;;;;;;7.50;3.45;;;;;;;20.03;48.86;101733.13;2116050;27;20131;-70
2023/05/21 11:14:36;;;;;;;10.82;3.42;;;;;;;19.97;49.66;101734.38;2108992;28;20041;-71
2023/05/21 11:16:06;;;;;;;6.57;3.05;;;;;;;19.81;50.28;101735.91;2119710;27;20055;-70
2023/05/21 11:17:15;;;;;;;5.13;3.20;;;;;;;19.90;51.04;101734.03;2132550;27;20853;-71
2023/05/21 11:18:16;;;;;;;5.35;3.35;;;;;;;19.98;50.80;101725.06;2115363;28;21275;-70
2023/05/21 11:19:18;;;;;;;6.97;3.10;;;;;;;20.08;50.81;101721.25;2098284;28;20045;-71
2023/05/21 11:20:21;;;;;;;3.20;2.90;;;;;;;20.17;50.23;101729.50;2098718;28;20110;-70
2023/05/21 12:45:21;;;;;;;4.03;1.98;;;;;;;20.40;41.66;101719.28;2109856;27;20191;-69
2023/05/21 12:46:26;;;;;;;3.50;1.75;;;;;;;20.38;40.72;101704.03;2089763;28;20035;-69
2023/05/21 12:47:31;;;;;;;3.50;1.75;;;;;;;20.42;41.98;101704.19;2101726;28;20047;-71
2023/05/21 12:48:37;;;;;;;5.13;2.00;;;;;;;20.42;42.16;101712.38;2088128;28;20946;-71
2023/05/21 12:49:43;;;;;;;2.55;2.03;;;;;;;20.44;41.14;101709.34;2089362;28;20111;-69
2023/05/21 12:50:45;;;;;;;4.60;2.00;;;;;;;20.46;41.73;101702.47;2087187;28;20037;-69
2023/05/21 17:27:53;;;;;;;3.08;1.70;;;;;;;18.12;43.69;101578.97;2128385;27;20193;-72
2023/05/21 17:28:55;;;;;;;5.20;1.80;;;;;;;18.11;43.87;101577.34;2121552;27;20078;-72
2023/05/21 17:29:57;;;;;;;2.42;1.70;;;;;;;18.10;43.66;101573.03;2112529;27;20167;-72
2023/05/21 17:31:00;;;;;;;2.55;1.50;;;;;;;18.10;43.46;101573.03;2096010;28;20828;-72
2023/05/21 17:32:02;;;;;;;6.80;3.13;;;;;;;18.08;43.79;101577.97;2105315;27;21269;-80
2023/05/21 18:47:47;;;;;;;6.50;2.70;;;;;;;15.71;58.20;101584.63;2116716;27;20121;-68
2023/05/21 18:48:49;;;;;;;86.15;41.33;;;;;;;15.94;58.33;101577.59;2112103;28;20145;-70
2023/05/21 18:49:51;;;;;;;43.55;18.30;;;;;;;16.17;57.31;101581.38;2095529;28;20264;-70
2023/05/21 18:50:53;;;;;;;142.90;63.95;;;;;;;16.29;56.48;101589.09;2086479;28;20127;-70
2023/05/21 18:51:56;;;;;;;36.15;18.30;;;;;;;16.28;56.15;101586.69;2114698;27;21281;-70
2023/05/21 18:53:00;;;;;;;96.13;36.70;;;;;;;16.16;56.04;101592.50;2111834;28;20985;-67
2023/05/21 18:54:04;;;;;;;165.90;72.20;;;;;;;16.11;56.22;101589.84;2095810;28;20951;-68
2023/05/21 18:55:09;;;;;;;207.07;89.82;;;;;;;16.05;56.45;101585.63;2104168;27;20853;-69
2023/05/21 18:56:12;;;;;;;85.68;39.47;;;;;;;16.02;56.65;101594.34;2112321;27;20059;-69
2023/05/21 18:57:17;;;;;;;166.18;59.13;;;;;;;16.00;56.68;101600.03;2121212;27;20063;-70
2023/05/21 18:58:19;;;;;;;150.88;61.80;;;;;;;16.01;56.75;101615.19;2111785;27;20040;-70
2023/05/21 18:59:21;;;;;;;173.00;71.97;;;;;;;16.03;57.08;101606.78;2106755;28;20041;-70
2023/05/21 19:00:23;;;;;;;189.65;72.88;;;;;;;16.02;57.27;101605.19;2095093;28;20080;-71
2023/05/21 19:01:25;;;;;;;127.07;52.85;;;;;;;15.99;57.24;101612.00;2094723;28;20779;-70
2023/05/21 19:02:30;;;;;;;61.95;27.75;;;;;;;15.97;57.44;101604.13;2103791;28;20033;-69
2023/05/21 19:03:38;;;;;;;245.02;97.35;;;;;;;16.01;57.39;101606.25;2113000;27;20063;-72
2023/05/21 19:04:43;;;;;;;63.90;25.95;;;;;;;15.98;57.74;101605.75;2094552;28;20223;-71
2023/05/21 19:05:47;;;;;;;63.53;26.63;;;;;;;15.96;57.71;101605.25;2082288;28;20155;-69
2023/05/21 19:06:48;;;;;;;111.57;39.95;;;;;;;15.95;57.91;101600.09;2087374;28;20030;-70
2023/05/21 19:07:51;;;;;;;34.72;14.70;;;;;;;15.96;58.07;101599.81;2087003;28;20048;-69
2023/05/21 19:08:53;;;;;;;20.00;9.65;;;;;;;15.94;58.13;101603.91;2103978;27;20031;-71
2023/05/21 19:09:58;;;;;;;39.97;15.52;;;;;;;15.92;58.34;101601.50;2102906;28;20905;-70
2023/05/21 19:11:00;;;;;;;18.75;7.43;;;;;;;15.92;58.34;101606.09;2087245;28;20049;-68
2023/05/21 19:12:03;;;;;;;7.65;3.28;;;;;;;15.90;58.02;101598.25;2086832;28;20041;-69
2023/05/21 19:13:04;;;;;;;26.40;11.50;;;;;;;15.89;58.02;101595.81;2103454;28;20052;-73
2023/05/21 19:14:08;;;;;;;57.47;24.35;;;;;;;15.88;58.03;101605.84;2103235;28;20029;-77
2023/05/21 19:15:11;;;;;;;47.75;18.77;;;;;;;15.90;57.55;101598.25;2103351;28;20071;-68
2023/05/21 19:16:14;;;;;;;20.85;8.82;;;;;;;15.92;57.28;101595.22;2087153;28;20049;-70
2023/05/21 19:17:15;;;;;;;31.05;16.00;;;;;;;15.94;57.41;101603.91;2095510;28;20079;-70
2023/05/21 19:18:18;;;;;;;5.70;3.05;;;;;;;15.94;57.26;101598.47;2098376;28;20041;-71
2023/05/21 19:19:22;;;;;;;3.30;1.70;;;;;;;15.94;57.31;101604.69;2095069;28;20037;-68
2023/05/21 19:20:25;;;;;;;4.68;1.73;;;;;;;15.92;57.20;101611.50;2095274;27;20025;-68
2023/05/21 19:21:27;;;;;;;3.72;1.65;;;;;;;15.91;56.88;101605.28;2095400;28;20084;-71
2023/05/21 19:22:30;;;;;;;5.30;1.67;;;;;;;15.92;56.02;101596.06;2103871;28;20037;-70
2023/05/21 19:23:32;;;;;;;2.55;1.60;;;;;;;15.95;55.45;101600.91;2112514;27;20895;-70
2023/05/21 19:24:34;;;;;;;3.17;1.65;;;;;;;16.00;55.57;101602.75;2111516;28;20039;-70
2023/05/21 19:25:36;;;;;;;3.50;1.52;;;;;;;15.97;55.31;101604.13;2096622;28;20986;-67
2023/05/21 19:26:38;;;;;;;3.03;1.60;;;;;;;15.90;54.91;101600.16;2103425;27;21543;-75
2023/05/21 19:27:40;;;;;;;3.13;1.65;;;;;;;15.79;55.28;101594.03;2098606;28;20045;-68
2023/05/21 19:28:42;;;;;;;3.60;1.75;;;;;;;15.75;55.47;101593.00;2095212;28;21469;-68
2023/05/21 19:29:45;;;;;;;6.55;1.60;;;;;;;15.73;55.57;101595.19;2103376;28;20025;-68
2023/05/21 19:30:48;;;;;;;2.90;1.40;;;;;;;15.70;55.56;101588.44;2103298;28;20040;-72
2023/05/21 19:31:54;;;;;;;6.45;1.88;;;;;;;15.70;55.56;101591.16;2110135;27;20165;-67
2023/05/21 19:32:58;;;;;;;3.85;1.80;;;;;;;15.72;55.94;101596.28;2093838;28;20056;-66
2023/05/21 19:34:00;;;;;;;4.82;1.60;;;;;;;15.74;56.01;101591.38;2079184;28;20865;-67
2023/05/21 19:35:04;;;;;;;13.20;6.07;;;;;;;15.79;56.08;101593.22;2097095;28;20862;-73
2023/05/21 19:36:07;;;;;;;22.60;6.70;;;;;;;15.81;56.09;101594.56;2099451;28;20095;-68
2023/05/21 19:37:09;;;;;;;9.05;3.08;;;;;;;15.85;55.85;101595.59;2094990;28;20041;-68
2023/05/21 19:38:10;;;;;;;4.85;2.90;;;;;;;15.82;55.80;101589.94;2101792;28;21037;-67
2023/05/21 19:39:15;;;;;;;9.50;3.95;;;;;;;15.87;55.78;101598.81;2102648;28;20031;-66
2023/05/21 19:40:17;;;;;;;19.58;6.53;;;;;;;15.91;56.07;101604.47;2094623;28;20037;-67
2023/05/21 19:41:18;;;;;;;7.47;3.45;;;;;;;15.91;55.74;101610.72;2094215;28;20034;-66
2023/05/21 19:42:20;;;;;;;18.17;4.55;;;;;;;15.86;54.92;101597.22;2095034;28;20139;-67
2023/05/21 19:43:23;;;;;;;6.85;2.35;;;;;;;15.86;54.68;101597.22;2095552;27;20032;-68
2023/05/21 19:44:25;;;;;;;9.68;2.85;;;;;;;15.87;54.97;101603.44;2111482;27;20028;-68
2023/05/21 19:45:28;;;;;;;5.30;2.22;;;;;;;15.84;54.58;101593.97;2110117;28;20063;-67
2023/05/21 19:46:32;;;;;;;6.18;2.35;;;;;;;15.88;54.59;101599.63;2103490;28;20103;-68
2023/05/21 19:47:34;;;;;;;5.97;2.08;;;;;;;15.89;54.14;101595.81;2102612;28;20053;-68
2023/05/21 19:48:40;;;;;;;6.88;1.55;;;;;;;15.88;54.23;101602.34;2073003;28;20144;-68
2023/05/21 19:49:41;;;;;;;6.70;1.90;;;;;;;15.86;54.24;101602.66;2095868;27;20056;-68
2023/05/21 19:50:43;;;;;;;4.53;1.92;;;;;;;15.83;54.14;101600.50;2093661;28;20045;-68
2023/05/21 19:51:47;;;;;;;7.22;2.92;;;;;;;15.83;54.23;101607.84;2095479;28;20025;-68
2023/05/21 19:52:52;;;;;;;6.40;2.10;;;;;;;15.84;54.45;101602.13;2112496;27;20135;-68
2023/05/21 19:53:54;;;;;;;8.82;3.05;;;;;;;15.84;54.08;101599.41;2111443;28;20059;-68
2023/05/21 19:55:03;;;;;;;3.22;2.03;;;;;;;15.87;54.35;101601.53;2094331;28;20143;-68
2023/05/21 19:56:08;;;;;;;6.88;1.98;;;;;;;15.90;54.23;101598.25;2089557;28;20029;-69
2023/05/21 19:57:12;;;;;;;3.28;2.10;;;;;;;15.91;53.99;101602.56;2095854;28;20084;-67
2023/05/21 19:58:17;;;;;;;8.90;2.58;;;;;;;15.90;54.22;101598.25;2103321;28;20037;-68
2023/05/21 19:59:19;;;;;;;8.25;2.75;;;;;;;15.90;54.36;101597.44;2097152;28;20056;-68
2023/05/21 20:00:21;;;;;;;2.55;1.52;;;;;;;15.92;54.33;101600.66;2097894;28;20046;-68
2023/05/21 20:01:24;;;;;;;5.05;1.90;;;;;;;15.92;53.86;101593.34;2089413;28;20060;-68
2023/05/21 20:02:29;;;;;;;5.53;1.80;;;;;;;15.92;53.49;101596.06;2089133;28;20100;-68
2023/05/21 20:03:34;;;;;;;4.45;1.30;;;;;;;15.92;53.35;101601.50;2098239;28;20078;-69
2023/05/21 20:04:36;;;;;;;13.77;6.10;;;;;;;15.91;53.29;101597.16;2098245;28;20025;-68
2023/05/21 20:05:38;;;;;;;17.73;9.45;;;;;;;15.93;53.58;101594.97;2097437;28;20037;-69
2023/05/21 20:06:41;;;;;;;20.65;11.20;;;;;;;15.97;53.94;101598.69;2095639;28;20991;-68